Latest Coastal Weather Observations for Burnie Port

IDT60701

Issued at 2:25 am EDT Thursday 27 November 2014 (issued every 10 minutes, with the page automatically refreshed every 10 minutes)

About coastal observations | Map of coastal stations | Coastal observations for TAS | Marine services | Other Formats
Station Details ID: 091344 Name: BURNIE NTC AWS Lat: -41.05 Lon: 145.91 Height: 0.0 m
Data from the previous 72 hours. | See also: Recent months for locations in Tasmania
Date/Time
EDT
Temp

°C
Wind Pressure Rain
since 9am
mm
Weather Cloud Vis
km
Sea
Height
m
Swell
Dir
 
Speed
knots
Gust
knots
hPa Trend Height
m
Period
s
Dir
27/02:00am 11.0 SSW 14 19 1021.5 - - - - - - - - -
27/01:30am 11.3 SSW 9 14 1021.8 - - - - - - - - -
27/01:00am 11.3 SSW 4 10 1021.9 - - - - - - - - -
27/12:30am 11.4 SSW 6 13 1021.9 - - - - - - - - -
27/12:00am 11.6 SW 8 12 1021.7 - - - - - - - - -
 
Date/Time
EDT
Temp

°C
Wind Pressure Rain
since 9am
mm
Weather Cloud Vis
km
Sea
Height
m
Swell
Dir
 
Speed
knots
Gust
knots
hPa Trend Height
m
Period
s
Dir
26/11:30pm 11.7 SW 7 10 1021.9 - - - - - - - - -
26/11:00pm 11.8 SW 5 9 1022.0 - - - - - - - - -
26/10:30pm 11.8 SW 5 11 1021.7 - - - - - - - - -
26/10:00pm 12.0 SW 5 9 1021.6 - - - - - - - - -
26/09:30pm 12.2 WSW 5 8 1021.3 - - - - - - - - -
26/09:00pm 12.7 WSW 6 12 1021.0 - - - - - - - - -
26/08:30pm 12.9 SW 9 18 1020.9 - - - - - - - - -
26/08:00pm 13.4 SW 10 16 1020.5 - - - - - - - - -
26/07:30pm 13.7 SW 15 23 1019.9 - - - - - - - - -
26/07:00pm 14.4 SW 16 24 1019.5 - - - - - - - - -
26/06:30pm 14.8 SW 14 23 1019.0 - - - - - - - - -
26/06:11pm 14.9 SSW 15 25 1018.8 - - - - - - - - -
26/06:00pm 15.4 SSW 14 20 1018.4 - - - - - - - - -
26/05:40pm 15.6 SSW 15 26 1018.3 - - - - - - - - -
26/05:36pm 15.5 SSW 17 26 1018.1 - - - - - - - - -
26/05:30pm 15.8 SW 11 15 1018.2 - - - - - - - - -
26/05:00pm 16.6 SW 13 20 1017.9 - - - - - - - - -
26/04:30pm 16.6 WSW 12 19 1017.8 - - - - - - - - -
26/04:00pm 16.5 WSW 9 18 1017.5 - - - - - - - - -
26/03:30pm 15.6 SSW 18 24 1017.6 - - - - - - - - -
26/03:09pm 16.5 SW 15 25 1017.4 - - - - - - - - -
26/03:00pm 16.1 SW 16 23 1017.5 - - - - - - - - -
26/02:30pm 16.1 WSW 14 22 1017.4 - - - - - - - - -
26/02:00pm 15.8 SW 15 23 1017.3 - - - - - - - - -
26/01:44pm 15.7 SW 15 26 1017.2 - - - - - - - - -
26/01:30pm 15.4 SW 13 21 1017.2 - - - - - - - - -
26/01:00pm 15.6 SW 12 18 1017.3 - - - - - - - - -
26/12:30pm 15.3 SW 12 18 1017.1 - - - - - - - - -
26/12:00pm 15.3 WSW 15 26 1016.9 - - - - - - - - -
26/11:30am 15.4 WSW 11 21 1016.8 - - - - - - - - -
26/11:00am 15.0 WSW 12 22 1016.8 - - - - - - - - -
26/10:30am 14.5 W 11 20 1016.5 - - - - - - - - -
26/10:00am 13.9 WSW 15 24 1016.6 - - - - - - - - -
26/09:30am 14.2 WSW 11 20 1016.3 - - - - - - - - -
26/09:00am 13.7 WSW 12 22 1016.1 - - - - - - - - -
26/08:30am 13.4 WSW 12 20 1015.8 - - - - - - - - -
26/08:00am 13.6 WSW 8 20 1015.2 - - - - - - - - -
26/07:30am 13.2 W 12 24 1014.9 - - - - - - - - -
26/07:00am 13.0 W 5 11 1014.5 - - - - - - - - -
26/06:30am 12.8 W 5 11 1014.0 - - - - - - - - -
26/06:00am 12.5 W 7 12 1013.7 - - - - - - - - -
26/05:30am 12.9 W 13 19 1013.3 - - - - - - - - -
26/05:00am 12.8 WNW 10 17 1013.1 - - - - - - - - -
26/04:30am 12.9 WNW 11 17 1012.9 - - - - - - - - -
26/04:00am 12.4 WNW 10 18 1012.9 - - - - - - - - -
26/03:30am 12.5 WNW 10 16 1013.1 - - - - - - - - -
26/03:00am 12.3 WNW 13 20 1013.4 - - - - - - - - -
26/02:30am 12.3 WNW 14 20 1013.7 - - - - - - - - -
26/02:00am 12.2 WNW 14 19 1014.1 - - - - - - - - -
26/01:30am 12.4 WNW 9 15 1014.3 - - - - - - - - -
26/01:00am 12.6 WNW 11 19 1014.5 - - - - - - - - -
26/12:30am 12.4 WNW 11 18 1014.8 - - - - - - - - -
26/12:00am 12.2 W 10 17 1014.8 - - - - - - - - -
 
Date/Time
EDT
Temp

°C
Wind Pressure Rain
since 9am
mm
Weather Cloud Vis
km
Sea
Height
m
Swell
Dir
 
Speed
knots
Gust
knots
hPa Trend Height
m
Period
s
Dir
25/11:30pm 12.0 W 10 15 1015.3 - - - - - - - - -
25/11:00pm 12.2 WNW 9 15 1015.5 - - - - - - - - -
25/10:30pm 12.3 W 9 14 1015.4 - - - - - - - - -
25/10:00pm 12.4 WNW 8 14 1015.7 - - - - - - - - -
25/09:30pm 12.5 W 9 15 1015.6 - - - - - - - - -
25/09:00pm 12.5 W 6 12 1015.3 - - - - - - - - -
25/08:30pm 12.6 W 10 24 1015.2 - - - - - - - - -
25/08:00pm 12.9 W 13 23 1015.0 - - - - - - - - -
25/07:30pm 13.0 W 11 18 1014.6 - - - - - - - - -
25/07:00pm 13.5 WSW 14 25 1014.3 - - - - - - - - -
25/06:51pm 13.7 W 15 26 1014.2 - - - - - - - - -
25/06:30pm 14.4 W 12 22 1013.6 - - - - - - - - -
25/06:00pm 14.7 W 12 22 1013.6 - - - - - - - - -
25/05:35pm 14.8 W 15 27 1013.2 - - - - - - - - -
25/05:30pm 15.0 W 14 24 1013.1 - - - - - - - - -
25/05:03pm 15.1 W 15 25 1013.1 - - - - - - - - -
25/05:00pm 15.1 WSW 14 23 1013.0 - - - - - - - - -
25/04:31pm 15.5 W 15 26 1012.9 - - - - - - - - -
25/04:30pm 15.2 W 16 26 1012.8 - - - - - - - - -
25/04:00pm 15.7 W 17 27 1012.7 - - - - - - - - -
25/03:36pm 16.1 W 15 26 1012.5 - - - - - - - - -
25/03:30pm 15.6 W 14 25 1012.5 - - - - - - - - -
25/03:00pm 16.2 W 16 26 1012.2 - - - - - - - - -
25/02:32pm 16.1 W 15 25 1012.0 - - - - - - - - -
25/02:30pm 15.9 W 16 25 1012.1 - - - - - - - - -
25/02:11pm 15.8 W 15 25 1012.0 - - - - - - - - -
25/02:00pm 16.4 W 13 25 1011.9 - - - - - - - - -
25/01:37pm 16.5 WNW 15 25 1011.5 - - - - - - - - -
25/01:30pm 16.9 W 15 24 1011.5 - - - - - - - - -
25/01:14pm 16.7 W 15 26 1011.5 - - - - - - - - -
25/01:00pm 16.9 W 12 24 1011.4 - - - - - - - - -
25/12:30pm 15.7 W 15 25 1011.7 - - - - - - - - -
25/12:00pm 16.4 W 15 25 1011.6 - - - - - - - - -
25/11:30am 15.8 WSW 15 26 1011.1 - - - - - - - - -
25/11:01am 15.8 W 15 25 1010.7 - - - - - - - - -
25/11:00am 15.5 WSW 14 25 1010.7 - - - - - - - - -
25/10:30am 15.4 W 16 26 1010.5 - - - - - - - - -
25/10:22am 15.5 WSW 15 26 1010.2 - - - - - - - - -
25/10:00am 14.8 WSW 14 24 1010.2 - - - - - - - - -
25/09:30am 14.4 WSW 15 25 1010.0 - - - - - - - - -
25/09:18am 13.8 WSW 15 26 1010.1 - - - - - - - - -
25/09:00am 13.5 W 10 16 1009.7 - - - - - - - - -
25/08:30am 13.2 W 16 26 1009.7 - - - - - - - - -
25/08:21am 13.1 W 15 26 1009.6 - - - - - - - - -
25/08:00am 13.2 W 12 20 1009.2 - - - - - - - - -
25/07:30am 12.9 W 10 17 1008.6 - - - - - - - - -
25/07:00am 12.6 W 13 20 1008.2 - - - - - - - - -
25/06:30am 11.9 W 9 17 1007.9 - - - - - - - - -
25/06:00am 11.3 W 8 14 1007.4 - - - - - - - - -
25/05:30am 11.0 WNW 7 14 1007.1 - - - - - - - - -
25/05:00am 10.8 W 10 16 1006.7 - - - - - - - - -
25/04:30am 10.7 WNW 8 13 1006.3 - - - - - - - - -
25/04:00am 10.3 WNW 9 12 1006.3 - - - - - - - - -
25/03:30am 10.3 WNW 9 15 1006.3 - - - - - - - - -
25/03:00am 10.6 WNW 11 19 1006.4 - - - - - - - - -
25/02:30am 10.4 W 11 16 1006.4 - - - - - - - - -
25/02:00am 10.5 W 11 17 1006.7 - - - - - - - - -
25/01:30am 10.6 W 11 15 1006.9 - - - - - - - - -
25/01:00am 10.7 W 9 13 1007.2 - - - - - - - - -
25/12:30am 11.0 W 9 14 1007.3 - - - - - - - - -
25/12:00am 11.5 W 8 12 1007.3 - - - - - - - - -
 
Date/Time
EDT
Temp

°C
Wind Pressure Rain
since 9am
mm
Weather Cloud Vis
km
Sea
Height
m
Swell
Dir
 
Speed
knots
Gust
knots
hPa Trend Height
m
Period
s
Dir
24/11:30pm 11.4 W 8 12 1007.3 - - - - - - - - -
24/11:00pm 11.6 W 8 12 1007.3 - - - - - - - - -
24/10:30pm 11.9 W 8 12 1007.3 - - - - - - - - -
24/10:00pm 12.3 W 9 15 1007.1 - - - - - - - - -
24/09:30pm 12.2 W 8 12 1006.6 - - - - - - - - -
24/09:00pm 12.6 W 7 11 1006.0 - - - - - - - - -
24/08:30pm 13.2 W 7 11 1005.8 - - - - - - - - -
24/08:00pm 13.8 WSW 7 14 1005.3 - - - - - - - - -
24/07:30pm 14.8 W 11 21 1004.9 - - - - - - - - -
24/07:00pm 14.7 WNW 8 14 1004.2 - - - - - - - - -
24/06:30pm 14.9 W 6 11 1003.6 - - - - - - - - -
24/06:00pm 14.8 W 6 11 1003.8 - - - - - - - - -
24/05:30pm 13.6 WNW 3 6 1004.1 - - - - - - - - -
24/05:00pm 13.2 ESE 2 3 1004.1 - - - - - - - - -
24/04:30pm 12.7 S 3 4 1004.4 - - - - - - - - -
24/04:00pm 12.5 SE 6 7 1004.5 - - - - - - - - -
24/03:30pm 13.1 E 8 9 1004.8 - - - - - - - - -
24/03:00pm 13.6 ESE 7 9 1005.2 - - - - - - - - -
24/02:30pm 13.8 ESE 9 11 1005.4 - - - - - - - - -
24/02:00pm 13.8 ESE 10 11 1005.9 - - - - - - - - -
24/01:30pm 13.9 E 8 9 1007.0 - - - - - - - - -

Other Formats:

Comma delimited format used in spreadsheet applications
http://www.bom.gov.au/fwo/IDT60701/IDT60701.95963.axf

JavaScript Object Notation format (JSON) in row-major order
http://www.bom.gov.au/fwo/IDT60701/IDT60701.95963.json